createdAt,value
2023-03-30T00:03:33.657Z,8.90
2023-03-30T00:13:41.899Z,8.00
2023-03-30T00:23:50.250Z,6.70
2023-03-30T00:33:57.828Z,7.90
2023-03-30T00:44:08.294Z,7.00
2023-03-30T00:54:20.717Z,6.80
2023-03-30T01:04:28.469Z,5.70
2023-03-30T01:14:36.728Z,5.20
2023-03-30T01:24:55.005Z,6.10
2023-03-30T01:35:29.683Z,6.50
2023-03-30T01:45:35.661Z,6.80
2023-03-30T01:55:44.690Z,5.70
2023-03-30T02:05:50.375Z,6.30
2023-03-30T02:16:04.108Z,6.20
2023-03-30T02:26:12.309Z,5.10
2023-03-30T02:36:22.561Z,4.80
2023-03-30T02:46:33.427Z,6.40
2023-03-30T02:56:43.777Z,6.30
2023-03-30T03:06:53.135Z,6.30
2023-03-30T03:17:00.500Z,6.50
2023-03-30T03:27:08.872Z,3.90
2023-03-30T03:37:16.175Z,4.10
2023-03-30T03:47:23.516Z,5.90
2023-03-30T03:57:31.024Z,6.70
2023-03-30T04:07:38.829Z,5.30
2023-03-30T04:17:47.404Z,5.70
2023-03-30T04:27:53.956Z,3.70
2023-03-30T04:38:02.559Z,5.10
2023-03-30T04:48:10.089Z,6.50
2023-03-30T04:58:18.129Z,6.30
2023-03-30T05:08:25.656Z,6.60
2023-03-30T05:18:32.756Z,4.20
2023-03-30T05:28:40.466Z,4.40
2023-03-30T05:38:47.925Z,6.20
2023-03-30T05:48:55.140Z,5.90
2023-03-30T05:59:05.280Z,6.60
2023-03-30T06:09:12.579Z,6.20
2023-03-30T06:19:20.210Z,6.40
2023-03-30T06:29:26.817Z,7.00
2023-03-30T06:39:37.570Z,8.80
2023-03-30T06:49:45.092Z,6.10
2023-03-30T06:59:52.829Z,6.40
2023-03-30T07:10:00.151Z,6.70
2023-03-30T07:20:09.894Z,5.00
2023-03-30T07:40:29.572Z,6.40
2023-03-30T07:50:36.833Z,7.80
2023-03-30T08:00:45.567Z,6.40
2023-03-30T08:10:53.203Z,5.60
2023-03-30T08:21:00.459Z,5.50
2023-03-30T08:31:04.974Z,5.80
2023-03-30T08:41:27.355Z,6.20
2023-03-30T08:51:36.079Z,5.10
2023-03-30T09:01:41.291Z,6.00
2023-03-30T09:11:48.015Z,5.30
2023-03-30T09:21:57.798Z,5.80
2023-03-30T09:32:13.294Z,5.70
2023-03-30T09:42:29.146Z,5.70
2023-03-30T09:52:34.804Z,4.70
2023-03-30T10:02:42.089Z,4.80
2023-03-30T10:12:51.842Z,4.90
2023-03-30T10:23:01.805Z,4.20
2023-03-30T10:33:12.937Z,4.60
2023-03-30T10:43:24.778Z,4.60
2023-03-30T10:53:35.478Z,3.80
2023-03-30T11:03:47.689Z,4.80
2023-03-30T11:13:56.256Z,4.00
2023-03-30T11:24:10.921Z,5.40
2023-03-30T11:34:20.784Z,4.30
2023-03-30T11:44:27.979Z,5.20
2023-03-30T11:55:03.588Z,4.40
2023-03-30T12:05:12.685Z,4.80
2023-03-30T12:15:26.635Z,5.10
2023-03-30T12:25:33.956Z,5.30
2023-03-30T12:36:02.910Z,5.50
2023-03-30T12:46:08.969Z,4.90
2023-03-30T12:56:18.616Z,5.50
2023-03-30T13:06:24.546Z,5.20
2023-03-30T13:37:01.089Z,8.40
2023-03-30T13:47:07.398Z,8.00
2023-03-30T13:57:13.978Z,9.70
2023-03-30T14:07:24.303Z,9.00
2023-03-30T14:17:31.419Z,8.50
2023-03-30T14:27:38.639Z,8.00
2023-03-30T14:37:52.086Z,8.60
2023-03-30T14:48:01.229Z,8.90
2023-03-30T14:58:07.859Z,10.60
2023-03-30T15:08:16.517Z,8.80
2023-03-30T15:18:24.208Z,9.10
2023-03-30T15:28:35.288Z,8.10
2023-03-30T15:38:44.348Z,11.70
2023-03-30T15:48:51.362Z,11.70
2023-03-30T15:59:00.476Z,11.00
2023-03-30T16:19:12.136Z,10.30
2023-03-30T16:29:21.767Z,9.20
2023-03-30T16:39:30.639Z,8.70
2023-03-30T16:49:37.809Z,10.10
2023-03-30T16:59:43.949Z,9.60
2023-03-30T17:09:51.083Z,13.50
2023-03-30T17:20:01.099Z,12.70
2023-03-30T17:30:19.255Z,15.00
2023-03-30T17:40:28.889Z,11.70
2023-03-30T17:50:39.594Z,13.30
2023-03-30T18:00:46.929Z,14.80
2023-03-30T18:10:55.413Z,14.30
2023-03-30T18:21:04.614Z,17.70
2023-03-30T18:31:13.333Z,16.60
2023-03-30T18:41:20.784Z,16.60
2023-03-30T18:51:28.047Z,17.60
2023-03-30T19:11:42.512Z,15.70
2023-03-30T19:21:55.647Z,17.00
2023-03-30T19:32:03.060Z,16.60
2023-03-30T19:42:09.510Z,14.90
2023-03-30T19:52:16.243Z,14.80
2023-03-30T20:02:22.914Z,17.50
2023-03-30T20:12:31.680Z,16.60
2023-03-30T20:22:41.411Z,18.50
2023-03-30T20:33:00.139Z,18.40
2023-03-30T20:43:13.693Z,17.10
2023-03-30T20:53:21.424Z,17.30
2023-03-30T21:03:30.311Z,16.20
2023-03-30T21:13:38.163Z,17.50
2023-03-30T21:23:44.344Z,16.40
2023-03-30T21:33:51.923Z,20.60
2023-03-30T21:43:58.986Z,19.40
2023-03-30T21:54:05.598Z,18.60
2023-03-30T22:04:12.905Z,19.40
2023-03-30T22:14:20.043Z,18.50
2023-03-30T22:24:27.303Z,19.10
2023-03-30T22:34:34.899Z,19.50
2023-03-30T22:44:41.929Z,21.80
2023-03-30T22:54:49.001Z,21.20
2023-03-30T23:15:02.602Z,19.10
2023-03-30T23:25:10.968Z,17.80
2023-03-30T23:35:16.843Z,20.70
2023-03-30T23:45:23.922Z,22.10
2023-03-30T23:55:31.213Z,17.70
